Airfield :
LOGIN :

Register | Disclaimer

   EN    FR    IT 

 










Legend :    VFR   Marginal VFR   IFR   Intensive IFR   Very Intensive IFR
Visi :
Ceiling :
>= 8 km
>= 3000ft
5 to 8 km
1000 to 3000 ft
1500m to 5 km
500 to 1000 ft
800 to 1500m
200 to 500 ft
< 800m
< 200 ft
Symbols :   Thunderstorms  Fog  Heavy snow  Heavy precipitations  Wind > 20 kt
SIGMETs :     Misc.  Thunderstorms  Icing  Turbulence  Mountain Waves  Volcanic Ashes







- Airport Elevation : 27 ft
- IATA code : PMI


LEPA - Palma de Mallorca

CURRENT METAR :
  • 290700Z 02003KT 300V070 9999 FEW020 27/14 Q1008 NOSIG

EXPIRED METARs :
  • 290630Z 33003KT 9999 FEW020 26/16 Q1008 NOSIG
  • 290600Z 00000KT 9999 FEW020 24/19 Q1007 NOSIG
  • 290530Z 00000KT 9999 FEW020 22/19 Q1007 NOSIG
  • 290500Z 12001KT 9999 FEW020 22/19 Q1007 NOSIG
  • 290430Z 01003KT 290V030 9999 FEW024 21/18 Q1007 NOSIG

TAF TAF LEPA
Valid from the 29 at 06:00 until the 30 at 06:00 UTC


290500Z 2906/3006 33010KT 9999 FEW030 TX29/2913Z TN21/2906Z
BECMG 2912/2914 22010KT
BECMG 2922/2924 03010KT
No reported NOTAMs for that airfield.



MET'MAP, your aeronautical weather chart ! - Copyright ORBIFLY December 2007 - Disclaimer

ORBIFLY MET'MAP TEAM :

Programming & Development : Alexandra Zaïnal
Concept & Development : Baudouin d'Aumeries
Co-Development & Prog : Marc-Olivier Méhu
Technical & hardware support : Manuel Goepfert

Contact : metmap@orbifly.com




SOURCES & CREDITS :

   NOAA